Orwell, OH (44076)

4:11 AM EDT on September 02, 2015 (GMT -0400)
Rome | | Change Station
CLOSE
Current Station
Personal Weather Station
Location: Rome, OH
Elevation: 801 ft
Nearby Weather Stations

Elev 801 ft 41.60 °N, 80.89 °W | Updated 3 minutes ago

Partly Cloudy
Partly Cloudy
63.0 °F
Feels Like 63.0 °F
N
0.0
Wind Variable Wind from NNW
Gusts 0.0 mph

Today
High -- | Low -- °F
--% Chance of Precip.
Yesterday
High -- | Low -- °F
Precip. -- in
6:50 AM 7:55 PM
Waning Gibbous, 82% visible
Pressure 30.07 in
Visibility 6.0 miles
Clouds Few 4700 ft
Few 5500 ft
Dew Point 62 °F
Humidity 97%
Rainfall 0.00 in
Snow Depth Not available.
UV 0 out of 12
Pollen 10.30 out of 12
Air Quality Not available.
Flu Activity Not available.
METAR KHZY 020753Z AUTO 00000KT 6SM BR FEW047 FEW055 19/19 A3009 RMK AO2 SLP183 T01940189
Pressure 30.07 in
Visibility 6.0 miles
Clouds Few 4700 ft
Few 5500 ft
Dew Point 62 °F
Humidity 97%
Rainfall 0.00 in
Snow Depth Not available.
UV 0 out of 12
Pollen 10.30 out of 12
Air Quality Not available.
Flu Activity Not available.
METAR KHZY 020753Z AUTO 00000KT 6SM BR FEW047 FEW055 19/19 A3009 RMK AO2 SLP183 T01940189

10-Day Weather Forecast

×

Almanac

Astronomy

Sep. 02, 2015 Rise Set
Actual Time
Civil Twilight
Nautical Twilight
Astronomical Twilight
Moon
Length of Visible Light
Length of Day
Tomorrow will be .
, % of the Moon is Illuminated

Today's Extremes

State Highs State Lows

Community

WunderPhotos

Upload Photos

1,851,727 photos uploaded!

WunderBlogs® & News

Nearby

Air Quality

  Air Quality AQ Index Pollutant
Not available.

Snow Depth

Station Depth Elevation

Earthquake Activity

City Distance Mag. Time & Date
Minimum magnitude displayed is 2.5.

Coastal Water Temperatures

Place Temperature

Stations

Nearby Weather Stations

Station Location Temp. Windchill Dew Point Humidity Wind Precip. Elev Updated Type